createdAt,value
2019-03-26T00:02:22.794Z,19.80
2019-03-26T00:04:53.742Z,21.30
2019-03-26T00:07:24.837Z,24.37
2019-03-26T00:09:55.958Z,21.40
2019-03-26T00:12:27.563Z,22.97
2019-03-26T00:14:58.715Z,33.07
2019-03-26T00:17:29.866Z,26.33
2019-03-26T00:20:01.074Z,23.43
2019-03-26T00:22:32.205Z,22.27
2019-03-26T00:25:03.079Z,21.77
2019-03-26T00:27:34.078Z,20.00
2019-03-26T00:30:05.481Z,25.33
2019-03-26T00:32:36.591Z,27.70
2019-03-26T00:35:07.655Z,18.30
2019-03-26T00:37:38.946Z,19.40
2019-03-26T00:40:10.489Z,24.13
2019-03-26T00:42:42.667Z,21.83
2019-03-26T00:45:13.590Z,17.90
2019-03-26T00:47:44.667Z,16.33
2019-03-26T00:50:16.090Z,17.37
2019-03-26T00:52:46.999Z,22.63
2019-03-26T00:55:22.971Z,18.07
2019-03-26T00:57:51.127Z,14.87
2019-03-26T01:00:39.785Z,23.33
2019-03-26T01:03:10.715Z,16.73
2019-03-26T01:05:42.037Z,15.17
2019-03-26T01:08:13.076Z,19.73
2019-03-26T01:10:44.004Z,16.13
2019-03-26T01:13:15.251Z,18.37
2019-03-26T01:15:46.342Z,15.17
2019-03-26T01:18:17.384Z,15.57
2019-03-26T01:20:48.549Z,20.83
2019-03-26T01:23:19.745Z,18.40
2019-03-26T01:25:50.670Z,15.37
2019-03-26T01:28:21.646Z,19.53
2019-03-26T01:30:52.782Z,18.47
2019-03-26T01:33:23.635Z,23.87
2019-03-26T01:35:54.494Z,22.53
2019-03-26T01:38:25.695Z,25.87
2019-03-26T01:40:56.547Z,21.50
2019-03-26T01:43:27.725Z,20.73
2019-03-26T01:45:58.897Z,15.90
2019-03-26T01:48:29.863Z,20.77
2019-03-26T01:51:01.067Z,17.83
2019-03-26T01:53:32.002Z,23.33
2019-03-26T01:56:03.177Z,23.67
2019-03-26T01:58:34.384Z,24.80
2019-03-26T02:01:05.350Z,20.50
2019-03-26T02:03:36.198Z,18.93
2019-03-26T02:06:07.161Z,20.30
2019-03-26T02:08:38.439Z,21.63
2019-03-26T02:11:09.546Z,20.30
2019-03-26T02:13:40.831Z,24.00
2019-03-26T02:16:12.022Z,23.17
2019-03-26T02:18:43.074Z,24.13
2019-03-26T02:21:15.213Z,20.17
2019-03-26T02:23:46.056Z,18.10
2019-03-26T02:26:17.319Z,19.80
2019-03-26T02:28:48.462Z,20.87
2019-03-26T02:31:19.285Z,19.07
2019-03-26T02:33:50.206Z,18.30
2019-03-26T02:36:21.159Z,19.87
2019-03-26T02:38:52.000Z,20.00
2019-03-26T02:41:23.271Z,19.20
2019-03-26T02:43:54.517Z,18.63
2019-03-26T02:46:25.672Z,18.47
2019-03-26T02:48:56.803Z,17.23
2019-03-26T02:51:27.988Z,19.20
2019-03-26T02:53:59.206Z,25.50
2019-03-26T02:56:30.458Z,19.90
2019-03-26T02:59:01.407Z,18.87
2019-03-26T03:01:32.921Z,16.60
2019-03-26T03:04:03.921Z,18.80
2019-03-26T03:06:35.053Z,15.27
2019-03-26T03:09:07.700Z,18.87
2019-03-26T03:11:38.848Z,25.40
2019-03-26T03:14:09.784Z,21.00
2019-03-26T03:16:40.877Z,17.40
2019-03-26T03:19:15.647Z,16.00
2019-03-26T03:21:44.812Z,16.73
2019-03-26T03:24:15.967Z,22.90
2019-03-26T03:26:46.847Z,15.33
2019-03-26T03:29:17.737Z,18.43
2019-03-26T03:31:49.758Z,14.70
2019-03-26T03:34:20.628Z,19.20
2019-03-26T03:36:51.755Z,13.60
2019-03-26T03:39:22.958Z,16.53
2019-03-26T03:41:53.910Z,15.13
2019-03-26T03:44:24.954Z,19.53
2019-03-26T03:46:56.858Z,16.03
2019-03-26T03:49:30.633Z,14.27
2019-03-26T03:52:03.745Z,13.13
2019-03-26T03:54:37.580Z,14.90
2019-03-26T03:57:10.154Z,13.77
2019-03-26T03:59:43.633Z,18.43
2019-03-26T04:02:14.505Z,15.00
2019-03-26T04:04:45.606Z,17.70
2019-03-26T04:07:16.899Z,14.40
2019-03-26T04:09:48.131Z,20.17
2019-03-26T04:12:18.987Z,14.53
2019-03-26T04:14:50.448Z,17.70
2019-03-26T04:17:21.534Z,13.80
2019-03-26T04:19:52.416Z,17.17
2019-03-26T04:22:23.572Z,15.13
2019-03-26T04:24:54.684Z,16.47
2019-03-26T04:27:26.593Z,18.57
2019-03-26T04:29:57.643Z,17.63
2019-03-26T04:32:28.485Z,15.13
2019-03-26T04:34:59.596Z,15.40
2019-03-26T04:37:31.926Z,16.73
2019-03-26T04:40:02.894Z,16.37
2019-03-26T04:42:34.171Z,16.23
2019-03-26T04:45:05.536Z,16.60
2019-03-26T04:47:36.569Z,18.47
2019-03-26T04:50:07.911Z,16.67
2019-03-26T04:52:39.120Z,20.50
2019-03-26T04:55:11.447Z,18.97
2019-03-26T04:57:42.368Z,19.07
2019-03-26T05:00:13.821Z,17.97
2019-03-26T05:02:44.785Z,14.77
2019-03-26T05:05:16.839Z,19.67
2019-03-26T05:07:48.076Z,25.30
2019-03-26T05:10:19.266Z,19.70
2019-03-26T05:12:50.536Z,23.10
2019-03-26T05:15:21.649Z,17.40
2019-03-26T05:17:52.769Z,26.57
2019-03-26T05:20:23.960Z,23.17
2019-03-26T05:22:54.801Z,19.13
2019-03-26T05:25:25.996Z,16.17
2019-03-26T05:27:57.227Z,22.03
2019-03-26T05:30:28.315Z,20.07
2019-03-26T05:32:59.125Z,18.80
2019-03-26T05:35:30.257Z,25.23
2019-03-26T05:38:01.254Z,17.40
2019-03-26T05:40:32.284Z,19.17
2019-03-26T05:43:03.482Z,22.70
2019-03-26T05:45:34.710Z,19.57
2019-03-26T05:48:05.668Z,17.27
2019-03-26T05:50:36.819Z,18.33
2019-03-26T05:53:07.890Z,20.03
2019-03-26T05:55:38.868Z,22.57
2019-03-26T05:58:09.930Z,15.73
2019-03-26T06:00:41.124Z,18.30
2019-03-26T06:03:11.959Z,19.07
2019-03-26T06:05:42.959Z,22.13
2019-03-26T06:08:13.954Z,14.83
2019-03-26T06:10:45.194Z,23.97
2019-03-26T06:13:17.304Z,23.97
2019-03-26T06:15:48.251Z,19.40
2019-03-26T06:18:19.334Z,20.40
2019-03-26T06:20:50.585Z,15.53
2019-03-26T06:23:21.482Z,29.10
2019-03-26T06:25:52.454Z,21.10
2019-03-26T06:28:24.727Z,21.13
2019-03-26T06:30:56.647Z,24.83
2019-03-26T06:33:27.625Z,15.73
2019-03-26T06:35:58.576Z,15.67
2019-03-26T06:38:29.856Z,16.77
2019-03-26T06:41:02.014Z,21.90
2019-03-26T06:43:32.838Z,17.13
2019-03-26T06:46:03.782Z,19.07
2019-03-26T06:48:34.965Z,14.07
2019-03-26T06:51:05.950Z,15.57
2019-03-26T06:53:36.834Z,12.27
2019-03-26T06:56:07.956Z,16.57
2019-03-26T06:58:39.075Z,18.40
2019-03-26T07:01:09.951Z,12.07
2019-03-26T07:03:41.172Z,13.07
2019-03-26T07:06:12.127Z,17.47
2019-03-26T07:08:43.026Z,18.33
2019-03-26T07:11:13.902Z,20.70
2019-03-26T07:13:44.780Z,16.40
2019-03-26T07:16:15.895Z,12.23
2019-03-26T07:18:46.962Z,15.43
2019-03-26T07:21:17.937Z,16.23
2019-03-26T07:23:49.294Z,17.27
2019-03-26T07:26:20.751Z,9.27
2019-03-26T07:28:51.786Z,14.37
2019-03-26T07:31:22.977Z,10.93
2019-03-26T07:33:53.988Z,10.73
2019-03-26T07:36:24.910Z,8.50
2019-03-26T07:38:56.038Z,10.53
2019-03-26T07:41:26.889Z,9.03
2019-03-26T07:43:57.860Z,12.60
2019-03-26T07:46:29.113Z,12.83
2019-03-26T07:48:59.942Z,12.90
2019-03-26T07:51:31.233Z,10.00
2019-03-26T07:54:02.471Z,10.20
2019-03-26T07:56:33.356Z,12.47
2019-03-26T07:59:04.477Z,12.03
2019-03-26T08:01:35.709Z,13.13
2019-03-26T08:04:06.989Z,13.77
2019-03-26T08:06:37.880Z,14.67
2019-03-26T08:09:09.232Z,9.97
2019-03-26T08:11:40.144Z,10.40
2019-03-26T08:14:11.097Z,10.70
2019-03-26T08:16:41.963Z,10.90
2019-03-26T08:19:12.996Z,10.67
2019-03-26T08:21:44.139Z,9.70
2019-03-26T08:24:15.208Z,13.87
2019-03-26T08:26:46.230Z,12.07
2019-03-26T08:29:17.207Z,10.30
2019-03-26T08:31:48.047Z,20.33
2019-03-26T08:34:18.944Z,9.13
2019-03-26T08:36:50.299Z,8.87
2019-03-26T08:39:21.334Z,11.77
2019-03-26T08:41:52.191Z,14.20
2019-03-26T08:44:23.364Z,17.10
2019-03-26T08:46:54.206Z,13.07
2019-03-26T08:49:30.608Z,12.83
2019-03-26T08:51:57.753Z,6.50
2019-03-26T08:54:29.109Z,8.87
2019-03-26T08:57:00.636Z,15.53
2019-03-26T08:59:31.770Z,10.43
2019-03-26T09:02:02.592Z,9.73
2019-03-26T09:04:33.793Z,16.73
2019-03-26T09:07:04.983Z,15.20
2019-03-26T09:09:35.869Z,8.63
2019-03-26T09:12:07.129Z,13.70
2019-03-26T09:14:38.382Z,10.03
2019-03-26T09:17:09.516Z,9.30
2019-03-26T09:19:40.583Z,9.67
2019-03-26T09:22:11.523Z,16.30
2019-03-26T09:24:42.774Z,9.67
2019-03-26T09:27:13.679Z,9.20
2019-03-26T09:29:44.552Z,12.27
2019-03-26T09:32:15.736Z,11.23
2019-03-26T09:34:46.924Z,8.83
2019-03-26T09:37:17.795Z,7.40
2019-03-26T09:39:48.924Z,14.70
2019-03-26T09:42:20.236Z,10.47
2019-03-26T09:44:51.102Z,9.93
2019-03-26T09:47:22.371Z,7.37
2019-03-26T09:49:53.656Z,10.03
2019-03-26T09:52:24.517Z,9.67
2019-03-26T09:54:55.456Z,6.73
2019-03-26T09:57:26.506Z,8.53
2019-03-26T09:59:57.364Z,10.77
2019-03-26T10:02:28.338Z,12.23
2019-03-26T10:04:59.514Z,8.60
2019-03-26T10:07:30.651Z,9.57
2019-03-26T10:10:01.583Z,10.87
2019-03-26T10:12:33.239Z,13.00
2019-03-26T10:15:04.704Z,8.50
2019-03-26T10:17:35.573Z,8.10
2019-03-26T10:20:07.164Z,9.43
2019-03-26T10:22:38.328Z,13.60
2019-03-26T10:25:11.348Z,19.70
2019-03-26T10:27:42.488Z,14.90
2019-03-26T10:30:15.319Z,13.33
2019-03-26T10:32:46.412Z,12.70
2019-03-26T10:35:17.671Z,11.07
2019-03-26T10:37:48.658Z,10.53
2019-03-26T10:40:31.593Z,13.43
2019-03-26T10:43:02.815Z,8.77
2019-03-26T10:45:33.749Z,11.53
2019-03-26T10:48:05.154Z,16.63
2019-03-26T10:50:36.356Z,17.03
2019-03-26T10:53:07.378Z,14.17
2019-03-26T10:55:38.592Z,17.87
2019-03-26T10:58:09.476Z,11.57
2019-03-26T11:00:40.640Z,10.67
2019-03-26T11:03:11.602Z,10.20
2019-03-26T11:05:42.447Z,18.30
2019-03-26T11:08:13.328Z,13.90
2019-03-26T11:10:44.647Z,12.93
2019-03-26T11:13:15.606Z,17.63
2019-03-26T11:15:46.562Z,14.87
2019-03-26T11:18:17.830Z,18.00
2019-03-26T11:21:01.697Z,14.60
2019-03-26T11:23:21.859Z,16.40
2019-03-26T11:25:53.051Z,15.07
2019-03-26T11:28:24.134Z,14.73
2019-03-26T11:30:55.396Z,11.10
2019-03-26T11:33:26.423Z,12.40
2019-03-26T11:35:57.309Z,17.00
2019-03-26T11:38:28.254Z,14.77
2019-03-26T11:41:02.523Z,14.77
2019-03-26T11:43:36.032Z,14.27
2019-03-26T11:46:07.454Z,18.27
2019-03-26T11:48:38.904Z,15.20
2019-03-26T11:51:09.985Z,15.27
2019-03-26T11:53:41.387Z,16.97
2019-03-26T11:56:12.661Z,14.67
2019-03-26T11:58:43.698Z,10.63
2019-03-26T12:01:14.813Z,21.57
2019-03-26T12:03:45.747Z,16.43
2019-03-26T12:06:16.901Z,11.47
2019-03-26T12:08:47.865Z,15.43
2019-03-26T12:11:18.705Z,15.67
2019-03-26T12:13:49.675Z,15.67
2019-03-26T12:16:20.964Z,14.47
2019-03-26T12:18:51.930Z,17.53
2019-03-26T12:21:22.951Z,19.00
2019-03-26T12:23:54.116Z,16.57
2019-03-26T12:26:24.968Z,20.07
2019-03-26T12:28:56.991Z,16.93
2019-03-26T12:31:28.089Z,18.80
2019-03-26T12:33:59.229Z,17.70
2019-03-26T12:36:39.722Z,18.97
2019-03-26T12:39:02.941Z,19.83
2019-03-26T12:41:34.487Z,18.93
2019-03-26T12:44:05.423Z,22.17
2019-03-26T12:46:36.297Z,20.40
2019-03-26T12:49:07.207Z,18.87
2019-03-26T12:51:39.381Z,20.47
2019-03-26T12:54:10.496Z,26.33
2019-03-26T12:56:41.524Z,20.17
2019-03-26T12:59:12.684Z,20.37
2019-03-26T13:01:43.785Z,24.97
2019-03-26T13:04:16.865Z,29.27
2019-03-26T13:06:47.547Z,19.37
2019-03-26T13:09:18.436Z,20.90
2019-03-26T13:11:49.695Z,16.40
2019-03-26T13:14:20.586Z,25.03
2019-03-26T13:16:51.597Z,21.90
2019-03-26T13:19:22.853Z,21.40
2019-03-26T13:21:54.033Z,21.23
2019-03-26T13:24:24.919Z,25.53
2019-03-26T13:26:56.212Z,18.33
2019-03-26T13:29:27.386Z,21.13
2019-03-26T13:31:58.373Z,20.80
2019-03-26T13:34:29.536Z,26.63
2019-03-26T13:37:00.568Z,18.83
2019-03-26T13:39:31.936Z,24.57
2019-03-26T13:42:03.045Z,21.00
2019-03-26T13:44:33.949Z,17.90
2019-03-26T13:47:05.185Z,30.07
2019-03-26T13:49:36.347Z,32.47
2019-03-26T13:52:07.203Z,21.10
2019-03-26T13:54:38.362Z,13.70
2019-03-26T13:57:09.612Z,11.87
2019-03-26T13:59:40.526Z,16.33
2019-03-26T14:02:11.687Z,13.33
2019-03-26T14:04:42.841Z,14.73
2019-03-26T14:07:13.834Z,15.20
2019-03-26T14:09:44.812Z,14.10
2019-03-26T14:12:17.079Z,15.67
2019-03-26T14:14:47.920Z,13.83
2019-03-26T14:17:18.941Z,18.30
2019-03-26T14:19:50.303Z,17.23
2019-03-26T14:22:21.228Z,13.60
2019-03-26T14:24:52.098Z,15.93
2019-03-26T14:27:23.274Z,16.93
2019-03-26T14:29:54.696Z,17.23
2019-03-26T14:32:25.599Z,13.83
2019-03-26T14:34:56.812Z,18.97
2019-03-26T14:37:29.700Z,16.20
2019-03-26T14:40:00.602Z,16.93
2019-03-26T14:42:31.741Z,33.27
2019-03-26T14:45:02.613Z,14.57
2019-03-26T14:47:33.774Z,22.77
2019-03-26T14:50:05.171Z,18.60
2019-03-26T14:52:36.018Z,18.07
2019-03-26T14:55:08.102Z,22.73
2019-03-26T14:57:39.388Z,22.97
2019-03-26T15:00:10.910Z,16.27
2019-03-26T15:02:43.594Z,11.80
2019-03-26T15:05:15.204Z,18.43
2019-03-26T15:07:46.139Z,13.27
2019-03-26T15:10:17.305Z,10.90
2019-03-26T15:12:48.518Z,12.07
2019-03-26T15:15:19.735Z,12.07
2019-03-26T15:17:51.088Z,23.60
2019-03-26T15:20:21.944Z,31.97
2019-03-26T15:22:53.055Z,21.47
2019-03-26T15:25:23.976Z,30.77
2019-03-26T15:27:54.845Z,29.57
2019-03-26T15:30:25.696Z,21.80
2019-03-26T15:32:58.041Z,19.27
2019-03-26T15:35:28.978Z,20.73
2019-03-26T15:37:59.890Z,23.60
2019-03-26T15:40:31.133Z,34.47
2019-03-26T15:43:02.131Z,21.77
2019-03-26T15:45:34.269Z,20.73
2019-03-26T15:48:05.294Z,22.47
2019-03-26T15:50:40.849Z,21.77
2019-03-26T15:53:12.007Z,25.53
2019-03-26T15:55:42.982Z,28.73
2019-03-26T15:58:13.866Z,26.30
2019-03-26T16:00:45.811Z,13.97
2019-03-26T16:03:16.964Z,17.70
2019-03-26T16:05:47.892Z,21.73
2019-03-26T16:08:19.167Z,20.87
2019-03-26T16:10:50.386Z,14.93
2019-03-26T16:13:21.417Z,13.27
2019-03-26T16:15:52.635Z,19.63
2019-03-26T16:18:23.832Z,15.80
2019-03-26T16:20:54.707Z,10.60
2019-03-26T16:23:25.747Z,17.73
2019-03-26T16:25:56.950Z,9.67
2019-03-26T16:28:27.817Z,8.13
2019-03-26T16:30:58.720Z,12.60
2019-03-26T16:33:29.727Z,9.57
2019-03-26T16:36:00.614Z,9.77
2019-03-26T16:38:31.674Z,11.77
2019-03-26T16:41:02.890Z,12.80
2019-03-26T16:43:33.940Z,7.83
2019-03-26T16:46:04.902Z,9.67
2019-03-26T16:48:36.215Z,11.13
2019-03-26T16:51:07.158Z,8.10
2019-03-26T16:53:38.534Z,11.30
2019-03-26T16:56:09.487Z,10.97
2019-03-26T16:58:40.825Z,7.60
2019-03-26T17:01:12.066Z,9.63
2019-03-26T17:03:43.222Z,12.17
2019-03-26T17:06:14.143Z,11.07
2019-03-26T17:08:45.519Z,13.53
2019-03-26T17:11:16.597Z,8.27
2019-03-26T17:13:47.580Z,10.27
2019-03-26T17:16:18.855Z,10.20
2019-03-26T17:18:50.094Z,12.00
2019-03-26T17:21:21.123Z,10.67
2019-03-26T17:23:52.166Z,6.67
2019-03-26T17:26:23.497Z,9.17
2019-03-26T17:28:54.737Z,13.43
2019-03-26T17:31:25.982Z,12.47
2019-03-26T17:33:56.889Z,12.20
2019-03-26T17:36:28.023Z,11.37
2019-03-26T17:38:59.325Z,16.40
2019-03-26T17:41:30.591Z,13.67
2019-03-26T17:44:02.643Z,17.47
2019-03-26T17:46:33.830Z,21.33
2019-03-26T17:49:04.782Z,14.13
2019-03-26T17:51:35.774Z,20.40
2019-03-26T17:54:06.767Z,13.30
2019-03-26T17:56:38.164Z,20.47
2019-03-26T17:59:09.395Z,16.13
2019-03-26T18:01:40.501Z,17.43
2019-03-26T18:04:11.426Z,21.63
2019-03-26T18:06:42.398Z,18.70
2019-03-26T18:09:13.533Z,16.80
2019-03-26T18:11:44.627Z,17.40
2019-03-26T18:14:15.870Z,17.27
2019-03-26T18:16:46.833Z,18.10
2019-03-26T18:19:17.854Z,23.27
2019-03-26T18:21:51.880Z,16.60
2019-03-26T18:24:22.184Z,21.57
2019-03-26T18:26:53.235Z,18.97
2019-03-26T18:29:24.189Z,13.20
2019-03-26T18:31:55.378Z,14.07
2019-03-26T18:34:26.260Z,12.57
2019-03-26T18:36:57.580Z,19.30
2019-03-26T18:39:29.016Z,13.87
2019-03-26T18:41:59.859Z,18.00
2019-03-26T18:44:31.086Z,14.30
2019-03-26T18:47:02.157Z,11.27
2019-03-26T18:49:33.269Z,23.90
2019-03-26T18:52:04.245Z,13.10
2019-03-26T18:54:35.468Z,19.03
2019-03-26T18:57:06.724Z,15.00
2019-03-26T18:59:37.905Z,21.70
2019-03-26T19:02:08.951Z,17.57
2019-03-26T19:04:40.215Z,32.57
2019-03-26T19:07:12.463Z,13.73
2019-03-26T19:09:43.610Z,20.17
2019-03-26T19:12:14.581Z,14.30
2019-03-26T19:14:47.317Z,16.23
2019-03-26T19:17:18.348Z,22.63
2019-03-26T19:19:49.315Z,15.17
2019-03-26T19:22:20.729Z,22.17
2019-03-26T19:24:52.055Z,27.90
2019-03-26T19:27:22.982Z,13.67
2019-03-26T19:29:54.689Z,16.70
2019-03-26T19:32:25.697Z,16.03
2019-03-26T19:34:56.710Z,12.43
2019-03-26T19:37:27.687Z,17.10
2019-03-26T19:39:58.643Z,11.00
2019-03-26T19:42:30.054Z,11.00
2019-03-26T19:45:01.184Z,11.33
2019-03-26T19:47:32.122Z,10.77
2019-03-26T19:50:03.138Z,12.30
2019-03-26T19:52:34.301Z,12.60
2019-03-26T19:55:05.350Z,12.60
2019-03-26T19:57:36.609Z,11.90
2019-03-26T20:00:09.816Z,10.90
2019-03-26T20:02:41.960Z,14.90
2019-03-26T20:05:13.090Z,11.80
2019-03-26T20:07:43.909Z,9.60
2019-03-26T20:10:15.492Z,9.80
2019-03-26T20:12:46.697Z,11.00
2019-03-26T20:15:18.412Z,9.50
2019-03-26T20:17:49.709Z,8.57
2019-03-26T20:20:22.507Z,10.60
2019-03-26T20:22:54.493Z,8.23
2019-03-26T20:25:26.506Z,7.77
2019-03-26T20:27:57.800Z,9.13
2019-03-26T20:30:28.960Z,8.77
2019-03-26T20:32:59.974Z,9.57
2019-03-26T20:35:31.028Z,6.70
2019-03-26T20:38:02.103Z,7.23
2019-03-26T20:40:33.131Z,11.17
2019-03-26T20:43:04.049Z,7.80
2019-03-26T20:45:35.104Z,8.30
2019-03-26T20:48:06.513Z,7.67
2019-03-26T20:50:37.334Z,5.67
2019-03-26T20:53:08.530Z,9.77
2019-03-26T20:55:39.614Z,12.10
2019-03-26T20:58:10.611Z,7.73
2019-03-26T21:00:42.978Z,8.97
2019-03-26T21:03:14.178Z,10.13
2019-03-26T21:05:45.144Z,9.57
2019-03-26T21:08:16.060Z,14.17
2019-03-26T21:10:46.917Z,10.50
2019-03-26T21:13:17.877Z,19.40
2019-03-26T21:15:56.973Z,12.17
2019-03-26T21:18:21.750Z,11.60
2019-03-26T21:20:52.937Z,16.83
2019-03-26T21:23:24.125Z,12.47
2019-03-26T21:25:55.197Z,13.13
2019-03-26T21:28:26.059Z,9.27
2019-03-26T21:30:57.210Z,7.13
2019-03-26T21:33:28.297Z,9.73
2019-03-26T21:35:59.096Z,14.40
2019-03-26T21:38:30.049Z,9.97
2019-03-26T21:41:00.862Z,8.20
2019-03-26T21:43:32.146Z,10.73
2019-03-26T21:46:03.216Z,9.03
2019-03-26T21:48:34.082Z,8.90
2019-03-26T21:51:05.243Z,9.70
2019-03-26T21:53:36.362Z,6.40
2019-03-26T21:56:07.289Z,8.10
2019-03-26T21:58:38.665Z,7.97
2019-03-26T22:01:09.898Z,7.70
2019-03-26T22:03:40.807Z,8.63
2019-03-26T22:06:11.899Z,13.60
2019-03-26T22:08:42.924Z,12.83
2019-03-26T22:11:13.746Z,6.97
2019-03-26T22:13:45.011Z,7.67
2019-03-26T22:16:15.869Z,8.93
2019-03-26T22:18:47.014Z,11.60
2019-03-26T22:21:18.286Z,9.07
2019-03-26T22:23:49.255Z,7.23
2019-03-26T22:26:20.381Z,8.23
2019-03-26T22:28:51.572Z,6.10
2019-03-26T22:31:22.538Z,10.93
2019-03-26T22:33:53.597Z,7.17
2019-03-26T22:36:24.552Z,8.63
2019-03-26T22:38:55.358Z,10.43
2019-03-26T22:41:26.348Z,10.07
2019-03-26T22:43:58.519Z,8.40
2019-03-26T22:46:29.597Z,8.17
2019-03-26T22:49:00.514Z,8.97
2019-03-26T22:51:31.693Z,9.90
2019-03-26T22:54:02.914Z,8.20
2019-03-26T22:56:33.831Z,8.43
2019-03-26T22:59:05.009Z,8.27
2019-03-26T23:01:35.850Z,8.67
2019-03-26T23:04:06.825Z,7.23
2019-03-26T23:06:38.025Z,8.17
2019-03-26T23:09:09.060Z,7.30
2019-03-26T23:11:40.006Z,10.27
2019-03-26T23:14:10.953Z,9.53
2019-03-26T23:16:42.262Z,7.53
2019-03-26T23:19:13.569Z,7.10
2019-03-26T23:21:44.711Z,7.63
2019-03-26T23:24:15.646Z,8.13
2019-03-26T23:26:46.827Z,9.37
2019-03-26T23:29:17.860Z,8.37
2019-03-26T23:31:48.825Z,9.50
2019-03-26T23:34:19.796Z,5.80
2019-03-26T23:36:51.036Z,9.73
2019-03-26T23:39:21.857Z,6.77
2019-03-26T23:41:52.727Z,7.90
2019-03-26T23:44:26.006Z,8.43
2019-03-26T23:46:56.855Z,8.47
2019-03-26T23:49:28.060Z,9.70
2019-03-26T23:51:58.973Z,7.27
2019-03-26T23:54:30.098Z,6.63
2019-03-26T23:57:01.266Z,10.40
2019-03-26T23:59:32.098Z,8.70
